Etusivu
METAR-TAF:

METAR-TAF

Lentoasemat :

Al Hoceima, Marokko

Leveyspiiri: 35-11N, Pituuspiiri: 003-51W, korkeus merenpinnasta: 27 m

Tämänhetkinen sää

Tämä raportti tehtiin 1 tunti ja 6 minuuttia sitten, kello 10.00 UTC
Tuuli 2 kn idästä/kaakosta
Lämpötila 16°C
Kosteus 77%
Ilmanpaine 1014 hPa
Näkyvyys 10 km tai enemmän
Hajonneita pilviä 2000 ft:n korkeudessa
Hajanaisia pilviä 3000 ft:n korkeudessa

METAR: GMTA 011000Z 12002KT 9999 BKN020 SCT030 16/12 Q1014 NOSIG

Aika: 12:06 (11:06 UTC)

Sääennuste

Tämä raportti tehtiin 6 tuntia ja 6 minuuttia sitten, kello 05.00 UTC
Ennuste voimassa 01. päivästä klo 06 UTC - 02. päivään klo 12 UTC
Tuuli 8 kn pohjoisesta
Näkyvyys: 8000 m
Hajanaisia pilviä 2600 ft:n korkeudessa
Hajanaisia pilviä 8000 ft:n korkeudessa
heikkoa sadetta
Tulossa
01. päivästä klo 06 UTC - 01. päivään klo 10 UTC

TAF: GMTA 010500Z 0106/0212 01008KT 8000 -RA SCT026 SCT080 BECMG 0106/0110 NSW

Säähavainnot ja -ennusteet yli 4000 lentoasemalta (METAR- ja TAF-raportit).

Käytössä olevat sääasemat on merkitty karttaan keltaisilla ja punaisilla pisteillä.

Aseta hiiri pisteen päälle nähdäksesi sääaseman nimen.

Klikkaa sitten nähdäksesi säähavainnot ja -ennusteet.

Kartan vaihtaminen: klikkaa mustalla rastilla varustettuja vihreitä pisteitä, niin voit zoomata sisään; viivalla varustettua vihreää pistettä, niin voit zoomata ulos tai vihreitä nuolia, niin pääset viereisille kartoille.


METAR-TAF: